Hlavní strana
METAR-TAF:

METAR-TAF

Letiště :

Yaoundé, Kamerun

zeměpisná šířka: 03-50N, zeměpisná délka: 011-31E, výška: 751 m

Aktuální stav počasí

Zpráva byla vytvořena před 40 minutami, v 01:00 UTC
Západojihozápadní vítr 6 kt
Teplota 24°C
Vlhkost vzduchu 89%
Tlak 1014 hPa
Viditelnost: 4000 m
Skoro jasno ve výšce 1000 ft
kouřmo

METAR: FKYS 260100Z 25006KT 4000 BR FEW010 24/22 Q1014 NOSIG

Čas: 02:40 (01:40 UTC)

Předpověď počasí

Zpráva byla vytvořena před 2 hodinami a 40 minutami, v 23:00 UTC
Předpověď platná od 26 v 00 UTC do 26 v 24 UTC
Západojihozápadní vítr 6 kt
Viditelnost: 3000 m
Oblačno až skoro zataženo ve výšce 600 ft
kouřmo
Dočasný
od 26 v 04 UTC do 26 v 08 UTC
Viditelnost: 1500 m
kouřmo

TAF: FKYS 252300Z 2600/2624 24006KT 3000 BR BKN006 TEMPO 2604/2608 1500 BR

Stav a předpovědi počasí z více než 4 000 letišť (zprávy METAR a TAF).

Červené a žluté tečky na mapě představují dostupné meteorologické stanice.

Když kurzor umístíte na tečku, zobrazí se název stanice.

Pak kliknutím zobrazíte stav a předpověď počasí.

Chcete-li změnit mapu, kliknutím na zelené tlačítko se znaménkem +mapu přiblížíte, kliknutím na zelené tlačítko se znaménkem – mapu oddálíte a kliknutím na zelené šipky přejdete na sousední mapy.


METAR-TAF: